Time;durP1;ratioP1;P1;durP2;ratioP2;P2;SDS_P1;SDS_P2;PMS_P1;PMS_P2;Temp;Humidity;BMP_temperature;BMP_pressure;BME280_temperature;BME280_humidity;BME280_pressure;Samples;Min_cycle;Max_cycle;Signal;HPM_P1;HPM_P2
2022/01/05 00:02:00;;;;;;;8.77;2.00;;;;;;;;;;5052951;28;20021;-74
2022/01/05 00:04:28;;;;;;;9.30;1.90;;;;;;;;;;5052395;28;20060;-74
2022/01/05 00:06:55;;;;;;;9.20;1.85;;;;;;;;;;5054110;28;20028;-73
2022/01/05 00:09:22;;;;;;;8.98;1.90;;;;;;;;;;5053828;28;20029;-73
2022/01/05 00:11:49;;;;;;;10.00;2.25;;;;;;;;;;5052674;28;20067;-72
2022/01/05 00:14:16;;;;;;;8.80;1.50;;;;;;;;;;5053894;28;20402;-72
2022/01/05 00:16:43;;;;;;;7.10;1.90;;;;;;;;;;5053979;28;20090;-73
2022/01/05 00:19:11;;;;;;;7.28;2.08;;;;;;;;;;5052546;28;20141;-73
2022/01/05 00:21:40;;;;;;;8.57;1.90;;;;;;;;;;5051406;28;20089;-73
2022/01/05 00:24:08;;;;;;;7.85;1.63;;;;;;;;;;5053612;28;20409;-73
2022/01/05 00:26:35;;;;;;;7.35;1.48;;;;;;;;;;5053639;28;20550;-73
2022/01/05 00:29:04;;;;;;;10.07;1.88;;;;;;;;;;5053699;28;20528;-73
2022/01/05 00:31:31;;;;;;;7.13;1.80;;;;;;;;;;5052470;28;20031;-72
2022/01/05 00:33:58;;;;;;;7.38;1.60;;;;;;;;;;5053709;28;20424;-72
2022/01/05 00:36:25;;;;;;;7.85;1.60;;;;;;;;;;5052400;28;20025;-72
2022/01/05 00:38:52;;;;;;;11.25;2.17;;;;;;;;;;5053848;28;20452;-72
2022/01/05 00:41:19;;;;;;;7.38;2.15;;;;;;;;;;5052417;28;20481;-73
2022/01/05 00:43:47;;;;;;;8.75;2.05;;;;;;;;;;5053426;28;20063;-73
2022/01/05 00:46:14;;;;;;;11.60;1.88;;;;;;;;;;5051918;28;20025;-72
2022/01/05 00:48:41;;;;;;;7.10;1.85;;;;;;;;;;5051849;28;20414;-74
2022/01/05 00:51:09;;;;;;;9.98;2.10;;;;;;;;;;5051910;28;20482;-75
2022/01/05 00:53:37;;;;;;;11.48;2.53;;;;;;;;;;5053118;28;20017;-74
2022/01/05 00:56:04;;;;;;;12.52;2.70;;;;;;;;;;5051742;28;20024;-75
2022/01/05 00:58:32;;;;;;;9.57;2.22;;;;;;;;;;5053230;28;20032;-74
2022/01/05 01:00:59;;;;;;;11.07;2.13;;;;;;;;;;5053298;28;20041;-73
2022/01/05 01:03:29;;;;;;;10.18;2.33;;;;;;;;;;5051660;28;20053;-73
2022/01/05 01:05:59;;;;;;;14.88;2.50;;;;;;;;;;5051877;28;20025;-75
2022/01/05 01:08:26;;;;;;;11.87;3.10;;;;;;;;;;5053309;28;20167;-74
2022/01/05 01:10:53;;;;;;;11.45;2.60;;;;;;;;;;5053044;28;20286;-74
2022/01/05 01:13:21;;;;;;;10.68;2.40;;;;;;;;;;5053035;28;20021;-75
2022/01/05 01:15:49;;;;;;;11.40;2.28;;;;;;;;;;5052976;28;20028;-74
2022/01/05 01:18:16;;;;;;;9.73;2.70;;;;;;;;;;5051729;28;20036;-73
2022/01/05 01:20:43;;;;;;;8.77;1.90;;;;;;;;;;5052925;28;20025;-73
2022/01/05 01:23:11;;;;;;;11.18;2.03;;;;;;;;;;5052932;28;20098;-74
2022/01/05 01:25:38;;;;;;;10.95;2.38;;;;;;;;;;5051490;28;20075;-73
2022/01/05 01:28:06;;;;;;;11.38;1.95;;;;;;;;;;5051616;28;20021;-73
2022/01/05 01:30:34;;;;;;;8.43;2.03;;;;;;;;;;5052713;28;20017;-75
2022/01/05 01:33:01;;;;;;;9.23;2.35;;;;;;;;;;5054755;28;20017;-74
2022/01/05 01:35:29;;;;;;;11.77;2.55;;;;;;;;;;5055652;28;20025;-73
2022/01/05 01:37:56;;;;;;;6.50;1.35;;;;;;;;;;5055453;28;20025;-75
2022/01/05 01:40:24;;;;;;;6.07;1.35;;;;;;;;;;5055575;28;20545;-75
2022/01/05 01:42:51;;;;;;;9.13;1.92;;;;;;;;;;5055254;28;20486;-74
2022/01/05 01:45:18;;;;;;;9.93;2.15;;;;;;;;;;5055647;28;20029;-73
2022/01/05 01:47:46;;;;;;;7.93;1.70;;;;;;;;;;5056604;28;20403;-73
2022/01/05 01:50:14;;;;;;;15.30;2.53;;;;;;;;;;5055394;28;20024;-74
2022/01/05 01:52:41;;;;;;;9.40;1.80;;;;;;;;;;5055162;28;20047;-73
2022/01/05 01:55:09;;;;;;;7.38;1.98;;;;;;;;;;5055253;28;20036;-74
2022/01/05 01:57:38;;;;;;;7.78;1.92;;;;;;;;;;5055033;28;20029;-74
2022/01/05 02:00:06;;;;;;;8.70;1.73;;;;;;;;;;5055160;28;20020;-74
2022/01/05 02:02:33;;;;;;;10.38;1.60;;;;;;;;;;5056190;28;20122;-75
2022/01/05 02:05:00;;;;;;;5.43;0.90;;;;;;;;;;5054870;28;20163;-74
2022/01/05 02:07:27;;;;;;;4.93;1.27;;;;;;;;;;5056225;28;20551;-74
2022/01/05 02:09:54;;;;;;;7.45;1.65;;;;;;;;;;5056169;28;20100;-74
2022/01/05 02:12:26;;;;;;;6.93;1.60;;;;;;;;;;5056125;28;20021;-75
2022/01/05 02:14:54;;;;;;;6.97;1.15;;;;;;;;;;5056311;28;20090;-74
2022/01/05 02:17:29;;;;;;;8.02;1.05;;;;;;;;;;5054763;28;20033;-73
2022/01/05 02:19:56;;;;;;;8.35;1.10;;;;;;;;;;5054624;28;20393;-74
2022/01/05 02:22:23;;;;;;;6.55;1.10;;;;;;;;;;5054692;28;20055;-74
2022/01/05 02:24:50;;;;;;;5.93;1.17;;;;;;;;;;5054658;28;20051;-75
2022/01/05 02:27:18;;;;;;;4.35;0.80;;;;;;;;;;5054478;28;20466;-74
2022/01/05 02:29:45;;;;;;;4.63;0.80;;;;;;;;;;5054625;28;20393;-73
2022/01/05 02:32:12;;;;;;;3.08;0.50;;;;;;;;;;5054579;28;20111;-74
2022/01/05 02:34:40;;;;;;;4.95;0.68;;;;;;;;;;5054599;28;20028;-75
2022/01/05 02:37:07;;;;;;;2.03;0.28;;;;;;;;;;5054514;28;20432;-75
2022/01/05 02:39:34;;;;;;;1.15;0.30;;;;;;;;;;5054244;28;20485;-73
2022/01/05 02:42:01;;;;;;;3.38;0.80;;;;;;;;;;5054007;28;20032;-74
2022/01/05 02:44:28;;;;;;;2.97;0.70;;;;;;;;;;5054000;28;20021;-74
2022/01/05 02:46:55;;;;;;;4.55;0.40;;;;;;;;;;5055343;28;20075;-75
2022/01/05 02:49:22;;;;;;;3.00;0.73;;;;;;;;;;5055440;28;20024;-75
2022/01/05 02:51:50;;;;;;;3.67;0.65;;;;;;;;;;5055402;28;20025;-74
2022/01/05 02:54:17;;;;;;;2.92;0.47;;;;;;;;;;5055288;28;20028;-75
2022/01/05 02:56:44;;;;;;;3.13;0.43;;;;;;;;;;5054038;28;20021;-73
2022/01/05 02:59:11;;;;;;;1.67;0.30;;;;;;;;;;5055185;28;20025;-74
2022/01/05 03:01:39;;;;;;;2.22;0.40;;;;;;;;;;5055291;28;20024;-75
2022/01/05 03:04:07;;;;;;;1.92;0.65;;;;;;;;;;5053524;28;20513;-72
2022/01/05 03:06:34;;;;;;;2.38;0.68;;;;;;;;;;5055294;28;20385;-74
2022/01/05 03:09:01;;;;;;;3.78;0.57;;;;;;;;;;5055045;28;20063;-73
2022/01/05 03:11:28;;;;;;;4.15;0.70;;;;;;;;;;5055092;28;20032;-73
2022/01/05 03:13:55;;;;;;;2.15;0.40;;;;;;;;;;5055231;28;20076;-74
2022/01/05 03:16:23;;;;;;;3.17;0.40;;;;;;;;;;5053890;28;20120;-73
2022/01/05 03:18:50;;;;;;;1.80;0.40;;;;;;;;;;5053620;28;20068;-73
2022/01/05 03:21:18;;;;;;;5.47;0.50;;;;;;;;;;5055087;28;20021;-73
2022/01/05 03:23:46;;;;;;;3.03;0.43;;;;;;;;;;5053714;28;20058;-72
2022/01/05 03:26:14;;;;;;;4.45;0.70;;;;;;;;;;5054839;28;20025;-73
2022/01/05 03:28:41;;;;;;;3.35;0.80;;;;;;;;;;5054933;28;20059;-72
2022/01/05 03:31:08;;;;;;;3.75;0.60;;;;;;;;;;5053659;28;20151;-73
2022/01/05 03:33:35;;;;;;;4.15;0.50;;;;;;;;;;5053570;28;20025;-73
2022/01/05 03:36:03;;;;;;;4.07;0.98;;;;;;;;;;5053500;28;20035;-73
2022/01/05 03:38:30;;;;;;;3.08;0.50;;;;;;;;;;5054731;28;20490;-73
2022/01/05 03:40:58;;;;;;;3.67;0.50;;;;;;;;;;5053665;28;20059;-72
2022/01/05 03:43:25;;;;;;;3.00;0.70;;;;;;;;;;5054523;28;20064;-74
2022/01/05 03:45:52;;;;;;;2.28;0.40;;;;;;;;;;5053056;28;20075;-74
2022/01/05 03:48:20;;;;;;;1.92;0.50;;;;;;;;;;5053131;28;20437;-73
2022/01/05 03:50:47;;;;;;;3.22;1.15;;;;;;;;;;5054303;28;20446;-74
2022/01/05 03:53:14;;;;;;;2.17;0.70;;;;;;;;;;5053125;28;20558;-74
2022/01/05 03:55:43;;;;;;;4.40;0.93;;;;;;;;;;5052679;28;20035;-74
2022/01/05 03:58:11;;;;;;;1.83;0.50;;;;;;;;;;5054262;28;20090;-75
2022/01/05 04:00:48;;;;;;;2.40;0.50;;;;;;;;;;5052790;28;20082;-74
2022/01/05 04:03:16;;;;;;;3.75;0.55;;;;;;;;;;5054079;28;20048;-76
2022/01/05 04:05:43;;;;;;;3.47;0.73;;;;;;;;;;5053896;28;20083;-74
2022/01/05 04:08:10;;;;;;;3.55;0.85;;;;;;;;;;5054005;28;20024;-74
2022/01/05 04:10:39;;;;;;;3.58;0.88;;;;;;;;;;5052545;28;20107;-75
2022/01/05 04:13:07;;;;;;;4.20;0.70;;;;;;;;;;5053721;28;20045;-74
2022/01/05 04:15:34;;;;;;;3.80;1.05;;;;;;;;;;5035914;28;20029;-75
2022/01/05 04:18:01;;;;;;;3.75;0.95;;;;;;;;;;5052355;28;20041;-74
2022/01/05 04:20:28;;;;;;;2.80;0.95;;;;;;;;;;5053354;28;20045;-75
2022/01/05 04:22:56;;;;;;;7.72;1.45;;;;;;;;;;5053651;28;20027;-75
2022/01/05 04:25:23;;;;;;;5.43;1.08;;;;;;;;;;5053590;28;20032;-74
2022/01/05 04:27:50;;;;;;;4.78;1.00;;;;;;;;;;5053645;28;20544;-74
2022/01/05 04:30:17;;;;;;;3.28;0.90;;;;;;;;;;5053587;28;20020;-74
2022/01/05 04:32:44;;;;;;;4.10;0.82;;;;;;;;;;5053540;28;20359;-75
2022/01/05 04:35:13;;;;;;;6.50;1.20;;;;;;;;;;5052235;28;20025;-75
2022/01/05 04:37:44;;;;;;;3.58;1.13;;;;;;;;;;5052166;28;20033;-75
2022/01/05 04:40:12;;;;;;;4.95;0.82;;;;;;;;;;5052116;28;20033;-75
2022/01/05 04:42:39;;;;;;;2.47;0.57;;;;;;;;;;5051977;28;20493;-76
2022/01/05 04:45:07;;;;;;;4.30;0.90;;;;;;;;;;5053306;28;20024;-75
2022/01/05 04:47:34;;;;;;;6.07;1.20;;;;;;;;;;5053011;28;20020;-75
2022/01/05 04:50:01;;;;;;;5.85;0.95;;;;;;;;;;5053226;28;20021;-75
2022/01/05 04:52:28;;;;;;;4.50;1.00;;;;;;;;;;5051814;28;20075;-72
2022/01/05 04:54:55;;;;;;;3.35;0.85;;;;;;;;;;5053193;28;20027;-75
2022/01/05 04:57:23;;;;;;;4.50;0.90;;;;;;;;;;5053144;28;20102;-74
2022/01/05 04:59:50;;;;;;;5.85;1.58;;;;;;;;;;5053225;28;20366;-73
2022/01/05 05:02:17;;;;;;;4.68;1.40;;;;;;;;;;5051757;28;20039;-74
2022/01/05 05:04:44;;;;;;;8.05;1.75;;;;;;;;;;5051447;28;20501;-74
2022/01/05 05:07:11;;;;;;;4.03;1.20;;;;;;;;;;5051216;28;20432;-74
2022/01/05 05:09:41;;;;;;;7.13;1.27;;;;;;;;;;5053012;28;20489;-74
2022/01/05 05:12:10;;;;;;;5.10;1.17;;;;;;;;;;5052792;28;20466;-73
2022/01/05 05:14:37;;;;;;;6.40;1.35;;;;;;;;;;5052982;28;20020;-73
2022/01/05 05:17:04;;;;;;;7.75;1.17;;;;;;;;;;5052926;28;20492;-73
2022/01/05 05:19:31;;;;;;;6.75;1.67;;;;;;;;;;5051650;28;20053;-75
2022/01/05 05:22:00;;;;;;;6.28;1.13;;;;;;;;;;5051604;28;20057;-74
2022/01/05 05:24:27;;;;;;;5.88;1.20;;;;;;;;;;5052928;28;20055;-74
2022/01/05 05:26:54;;;;;;;8.63;1.67;;;;;;;;;;5052831;28;20029;-74
2022/01/05 05:29:21;;;;;;;8.32;1.92;;;;;;;;;;5051622;28;20036;-73
2022/01/05 05:31:48;;;;;;;5.13;1.23;;;;;;;;;;5053103;28;20017;-75
2022/01/05 05:34:16;;;;;;;7.20;1.70;;;;;;;;;;5051939;28;20176;-74
2022/01/05 05:36:43;;;;;;;8.30;1.85;;;;;;;;;;5051479;28;20021;-73
2022/01/05 05:39:10;;;;;;;7.57;1.45;;;;;;;;;;5051456;28;20021;-74
2022/01/05 05:41:37;;;;;;;10.90;2.42;;;;;;;;;;5051488;28;20024;-73
2022/01/05 05:44:04;;;;;;;10.88;2.00;;;;;;;;;;5052596;28;20028;-74
2022/01/05 05:46:32;;;;;;;10.48;2.20;;;;;;;;;;5051311;28;20063;-73
2022/01/05 05:48:59;;;;;;;10.07;1.88;;;;;;;;;;5052635;28;20029;-73
2022/01/05 05:51:26;;;;;;;9.23;1.98;;;;;;;;;;5052660;28;20025;-74
2022/01/05 05:53:53;;;;;;;6.95;1.50;;;;;;;;;;5052531;28;20092;-73
2022/01/05 05:56:20;;;;;;;7.75;1.42;;;;;;;;;;5052704;28;20425;-75
2022/01/05 05:58:47;;;;;;;6.78;1.00;;;;;;;;;;5051335;28;20025;-73
2022/01/05 06:01:14;;;;;;;4.88;0.90;;;;;;;;;;5051281;28;20482;-75
2022/01/05 06:03:41;;;;;;;6.80;1.77;;;;;;;;;;5050874;28;20055;-75
2022/01/05 06:06:09;;;;;;;5.68;1.10;;;;;;;;;;5052584;28;20033;-75
2022/01/05 06:08:36;;;;;;;5.43;1.63;;;;;;;;;;5051180;28;20031;-75
2022/01/05 06:11:03;;;;;;;6.38;2.13;;;;;;;;;;5052465;28;20025;-75
2022/01/05 06:13:30;;;;;;;6.18;1.55;;;;;;;;;;5052299;28;20041;-75
2022/01/05 06:15:57;;;;;;;7.28;1.30;;;;;;;;;;5051038;28;20021;-75
2022/01/05 06:18:24;;;;;;;6.13;1.45;;;;;;;;;;5051922;28;20028;-73
2022/01/05 06:20:52;;;;;;;5.78;1.77;;;;;;;;;;5054924;28;20401;-76
2022/01/05 06:23:19;;;;;;;9.88;2.08;;;;;;;;;;5055086;28;20108;-76
2022/01/05 06:25:46;;;;;;;8.80;1.65;;;;;;;;;;5054492;28;20033;-75
2022/01/05 06:28:13;;;;;;;12.02;2.38;;;;;;;;;;5054562;28;20055;-75
2022/01/05 06:30:41;;;;;;;11.13;2.83;;;;;;;;;;5055660;28;20028;-74
2022/01/05 06:33:09;;;;;;;9.57;2.38;;;;;;;;;;5055864;28;20021;-76
2022/01/05 06:35:36;;;;;;;13.27;2.63;;;;;;;;;;5054463;28;20108;-76
2022/01/05 06:38:04;;;;;;;11.32;2.90;;;;;;;;;;5054291;28;20025;-76
2022/01/05 06:40:32;;;;;;;15.52;2.80;;;;;;;;;;5055503;28;20418;-74
2022/01/05 06:43:00;;;;;;;12.80;2.83;;;;;;;;;;5054257;28;20029;-77
2022/01/05 06:45:27;;;;;;;13.43;2.38;;;;;;;;;;5055542;28;20120;-76
2022/01/05 06:47:55;;;;;;;17.55;4.32;;;;;;;;;;5054509;28;20386;-74
2022/01/05 06:50:22;;;;;;;19.05;3.70;;;;;;;;;;5054030;28;20025;-79
2022/01/05 06:52:50;;;;;;;15.80;2.97;;;;;;;;;;5055021;28;20017;-77
2022/01/05 06:55:17;;;;;;;20.20;3.63;;;;;;;;;;5052982;28;20025;-73
2022/01/05 06:57:45;;;;;;;18.27;3.95;;;;;;;;;;5054021;28;20036;-74
2022/01/05 07:00:13;;;;;;;17.38;3.63;;;;;;;;;;5053975;28;20085;-74
2022/01/05 07:02:40;;;;;;;18.15;3.20;;;;;;;;;;5055031;28;20427;-73
2022/01/05 07:05:08;;;;;;;21.25;3.67;;;;;;;;;;5054994;28;20029;-73
2022/01/05 07:07:35;;;;;;;18.05;4.22;;;;;;;;;;5053997;28;20028;-74
2022/01/05 07:10:02;;;;;;;18.83;3.90;;;;;;;;;;5052761;28;20024;-75
2022/01/05 07:12:29;;;;;;;16.13;3.42;;;;;;;;;;5054004;28;20470;-73
2022/01/05 07:14:56;;;;;;;17.52;3.28;;;;;;;;;;5052572;28;20028;-73
2022/01/05 07:17:23;;;;;;;21.17;3.75;;;;;;;;;;5052584;28;20032;-74
2022/01/05 07:19:51;;;;;;;17.52;3.97;;;;;;;;;;5052334;28;20035;-73
2022/01/05 07:22:18;;;;;;;15.70;4.00;;;;;;;;;;5054414;28;20032;-74
2022/01/05 07:24:45;;;;;;;17.30;3.83;;;;;;;;;;5053011;28;20049;-73
2022/01/05 07:27:13;;;;;;;21.13;4.95;;;;;;;;;;5052978;28;20017;-73
2022/01/05 07:29:40;;;;;;;14.98;3.80;;;;;;;;;;5052771;28;20481;-74
2022/01/05 07:32:07;;;;;;;17.70;4.25;;;;;;;;;;5053914;28;20048;-73
2022/01/05 07:34:34;;;;;;;22.75;4.43;;;;;;;;;;5054276;28;20021;-72
2022/01/05 07:37:01;;;;;;;20.98;4.03;;;;;;;;;;5053866;28;20389;-73
2022/01/05 07:39:29;;;;;;;23.15;5.03;;;;;;;;;;5053990;28;20394;-74
2022/01/05 07:41:56;;;;;;;24.92;4.95;;;;;;;;;;5053967;28;20108;-73
2022/01/05 07:44:23;;;;;;;21.27;4.00;;;;;;;;;;5053743;28;20100;-74
2022/01/05 07:46:50;;;;;;;23.42;4.45;;;;;;;;;;5052589;28;20118;-73
2022/01/05 07:49:17;;;;;;;26.60;5.30;;;;;;;;;;5053793;28;20020;-73
2022/01/05 07:51:44;;;;;;;25.48;5.32;;;;;;;;;;5053721;28;20416;-72
2022/01/05 07:54:11;;;;;;;23.35;5.40;;;;;;;;;;5052169;28;20035;-72
2022/01/05 07:56:39;;;;;;;22.33;4.80;;;;;;;;;;5053458;28;20025;-72
2022/01/05 07:59:06;;;;;;;24.77;4.70;;;;;;;;;;5053513;28;20489;-72
2022/01/05 08:01:33;;;;;;;28.60;5.88;;;;;;;;;;5052399;28;20021;-73
2022/01/05 08:04:00;;;;;;;30.10;5.72;;;;;;;;;;5051972;28;20447;-72
2022/01/05 08:06:27;;;;;;;24.42;4.65;;;;;;;;;;5053719;28;20033;-72
2022/01/05 08:08:55;;;;;;;27.55;5.57;;;;;;;;;;5052599;28;20085;-72
2022/01/05 08:11:22;;;;;;;21.67;5.25;;;;;;;;;;5053835;28;20091;-72
2022/01/05 08:13:49;;;;;;;25.60;4.68;;;;;;;;;;5052544;28;20021;-72
2022/01/05 08:16:16;;;;;;;34.33;6.45;;;;;;;;;;5053616;28;20437;-73
2022/01/05 08:18:44;;;;;;;27.30;5.25;;;;;;;;;;5053853;28;20056;-72
2022/01/05 08:21:12;;;;;;;24.88;5.50;;;;;;;;;;5053610;28;20076;-72
2022/01/05 08:23:39;;;;;;;29.10;5.40;;;;;;;;;;5053567;28;20031;-73
2022/01/05 08:26:06;;;;;;;28.25;5.03;;;;;;;;;;5053847;28;20508;-73
2022/01/05 08:28:33;;;;;;;27.27;5.00;;;;;;;;;;5053793;28;20074;-72
2022/01/05 08:31:01;;;;;;;23.13;4.95;;;;;;;;;;5052148;28;20033;-72
2022/01/05 08:33:28;;;;;;;29.30;5.45;;;;;;;;;;5053226;28;20033;-72
2022/01/05 08:35:55;;;;;;;32.10;6.32;;;;;;;;;;5052148;28;20025;-72
2022/01/05 08:38:22;;;;;;;29.08;5.28;;;;;;;;;;5051883;28;20108;-72
2022/01/05 08:40:49;;;;;;;33.40;5.43;;;;;;;;;;5053423;28;20547;-73
2022/01/05 08:43:17;;;;;;;25.77;5.03;;;;;;;;;;5050966;28;20401;-74
2022/01/05 08:45:44;;;;;;;26.15;5.55;;;;;;;;;;5053128;28;20031;-75
2022/01/05 08:48:11;;;;;;;23.45;4.88;;;;;;;;;;5051783;28;20025;-76
2022/01/05 08:50:39;;;;;;;25.58;5.57;;;;;;;;;;5051969;28;20024;-75
2022/01/05 08:53:07;;;;;;;27.08;5.35;;;;;;;;;;5052963;28;20131;-75
2022/01/05 08:55:36;;;;;;;30.42;5.32;;;;;;;;;;5053027;28;20108;-75
2022/01/05 08:58:04;;;;;;;28.42;4.90;;;;;;;;;;5053024;28;20057;-74
2022/01/05 09:00:32;;;;;;;28.95;5.68;;;;;;;;;;5052943;28;20464;-76
2022/01/05 09:03:00;;;;;;;28.13;5.45;;;;;;;;;;5052701;28;20041;-75
2022/01/05 09:05:27;;;;;;;30.25;5.75;;;;;;;;;;5052798;28;20112;-74
2022/01/05 09:07:54;;;;;;;35.70;6.10;;;;;;;;;;5052781;28;20021;-75
2022/01/05 09:10:22;;;;;;;32.92;5.47;;;;;;;;;;5052961;28;20049;-74
2022/01/05 09:12:49;;;;;;;35.38;5.30;;;;;;;;;;5052788;28;20127;-74
2022/01/05 09:15:16;;;;;;;29.58;4.80;;;;;;;;;;5052830;28;20025;-73
2022/01/05 09:17:43;;;;;;;27.50;5.60;;;;;;;;;;5051531;28;20029;-75
2022/01/05 09:20:11;;;;;;;31.02;5.05;;;;;;;;;;5051598;28;20063;-74
2022/01/05 09:22:38;;;;;;;32.42;5.53;;;;;;;;;;5051536;28;20116;-74
2022/01/05 09:25:07;;;;;;;28.00;6.05;;;;;;;;;;5052736;28;20029;-72
2022/01/05 09:27:34;;;;;;;26.10;5.20;;;;;;;;;;5052722;28;20021;-75
2022/01/05 09:30:02;;;;;;;28.38;6.28;;;;;;;;;;5052758;28;20028;-73
2022/01/05 09:32:29;;;;;;;33.17;5.82;;;;;;;;;;5051330;28;20104;-73
2022/01/05 09:34:56;;;;;;;28.83;5.88;;;;;;;;;;5052528;28;20025;-75
2022/01/05 09:37:40;;;;;;;30.20;5.65;;;;;;;;;;5051525;28;20021;-73
2022/01/05 09:42:53;;;;;;;28.05;5.80;;;;;;;;;;5052880;28;20044;-73
2022/01/05 09:45:22;;;;;;;27.92;4.95;;;;;;;;;;5052652;28;20470;-74
2022/01/05 09:48:02;;;;;;;30.95;5.35;;;;;;;;;;5052469;28;20466;-72
2022/01/05 09:50:29;;;;;;;31.13;6.30;;;;;;;;;;5052662;28;20448;-74
2022/01/05 09:52:56;;;;;;;30.90;5.55;;;;;;;;;;5052730;28;20078;-74
2022/01/05 09:55:24;;;;;;;30.70;6.40;;;;;;;;;;5056656;28;20489;-74
2022/01/05 09:57:52;;;;;;;33.55;5.57;;;;;;;;;;5056455;28;20500;-73
2022/01/05 10:00:19;;;;;;;27.90;5.47;;;;;;;;;;5055226;28;20036;-73
2022/01/05 10:02:49;;;;;;;28.40;5.13;;;;;;;;;;5056225;28;20102;-73
2022/01/05 10:05:16;;;;;;;32.38;5.82;;;;;;;;;;5054990;28;20513;-72
2022/01/05 10:07:44;;;;;;;31.17;5.43;;;;;;;;;;5056207;28;20140;-72
2022/01/05 10:10:11;;;;;;;30.42;5.00;;;;;;;;;;5055142;28;20029;-72
2022/01/05 10:12:39;;;;;;;30.52;5.65;;;;;;;;;;5055089;28;20059;-72
2022/01/05 10:15:06;;;;;;;34.38;5.88;;;;;;;;;;5056172;28;20033;-73
2022/01/05 10:17:36;;;;;;;30.90;6.03;;;;;;;;;;5056019;28;20485;-72
2022/01/05 10:20:05;;;;;;;34.35;5.82;;;;;;;;;;5054798;28;20031;-72
2022/01/05 10:22:34;;;;;;;29.40;5.00;;;;;;;;;;5055888;28;20031;-74
2022/01/05 10:25:07;;;;;;;29.23;5.47;;;;;;;;;;5054583;28;20036;-73
2022/01/05 10:27:35;;;;;;;31.52;5.65;;;;;;;;;;5055835;28;20017;-73
2022/01/05 10:30:12;;;;;;;34.72;6.15;;;;;;;;;;5054547;28;20025;-72
2022/01/05 10:32:39;;;;;;;32.75;5.72;;;;;;;;;;5055882;28;20042;-72
2022/01/05 10:35:17;;;;;;;34.88;7.07;;;;;;;;;;5054584;28;20047;-72
2022/01/05 10:37:45;;;;;;;31.77;6.80;;;;;;;;;;5055774;28;20021;-72
2022/01/05 10:40:22;;;;;;;31.13;5.15;;;;;;;;;;5054369;28;20025;-72
2022/01/05 10:42:50;;;;;;;30.77;5.15;;;;;;;;;;5054527;28;20485;-72
2022/01/05 10:45:36;;;;;;;29.27;4.85;;;;;;;;;;5055551;28;20033;-72
2022/01/05 10:48:07;;;;;;;24.17;4.55;;;;;;;;;;5054301;28;20021;-73
2022/01/05 10:50:35;;;;;;;31.85;5.57;;;;;;;;;;5055623;28;20028;-73
2022/01/05 10:53:02;;;;;;;31.00;5.78;;;;;;;;;;5055602;28;20023;-74
2022/01/05 10:55:31;;;;;;;31.00;5.28;;;;;;;;;;5055422;28;20021;-74
2022/01/05 10:57:58;;;;;;;33.63;5.78;;;;;;;;;;5055458;28;20050;-73
2022/01/05 11:00:36;;;;;;;33.05;5.80;;;;;;;;;;5054053;28;20031;-73
2022/01/05 11:03:19;;;;;;;30.35;5.25;;;;;;;;;;5053850;28;20045;-73
2022/01/05 11:06:04;;;;;;;30.63;5.97;;;;;;;;;;5052978;28;20037;-73
2022/01/05 11:08:32;;;;;;;32.22;5.57;;;;;;;;;;5055261;28;20017;-72
2022/01/05 11:11:00;;;;;;;31.33;5.53;;;;;;;;;;5055185;28;20389;-72
2022/01/05 11:13:27;;;;;;;37.70;6.18;;;;;;;;;;5053869;28;20436;-72
2022/01/05 11:15:59;;;;;;;35.00;5.70;;;;;;;;;;5053718;28;20033;-73
2022/01/05 11:18:31;;;;;;;28.52;5.05;;;;;;;;;;5055104;28;20028;-72
2022/01/05 11:21:03;;;;;;;30.83;4.63;;;;;;;;;;5053755;28;20021;-72
2022/01/05 11:23:31;;;;;;;27.67;5.10;;;;;;;;;;5053545;28;20044;-71
2022/01/05 11:25:59;;;;;;;31.23;5.50;;;;;;;;;;5054774;28;20021;-73
2022/01/05 11:28:27;;;;;;;28.45;5.60;;;;;;;;;;5053519;28;20021;-72
2022/01/05 11:30:55;;;;;;;30.92;5.10;;;;;;;;;;5054827;28;20052;-72
2022/01/05 11:33:23;;;;;;;26.38;4.32;;;;;;;;;;5054842;28;20358;-72
2022/01/05 11:35:50;;;;;;;32.28;6.50;;;;;;;;;;5053422;28;20406;-71
2022/01/05 11:38:18;;;;;;;29.27;5.47;;;;;;;;;;5054755;28;20021;-71
2022/01/05 11:40:51;;;;;;;18.52;3.65;;;;;;;;;;5054856;28;20029;-72
2022/01/05 11:43:23;;;;;;;14.13;2.30;;;;;;;;;;5053368;28;20035;-70
2022/01/05 11:45:51;;;;;;;17.50;2.38;;;;;;;;;;5054555;28;20021;-72
2022/01/05 11:48:28;;;;;;;11.90;3.15;;;;;;;;;;5054493;28;20024;-71
2022/01/05 11:50:57;;;;;;;17.15;3.58;;;;;;;;;;5054484;28;20021;-71
2022/01/05 11:53:44;;;;;;;19.17;3.72;;;;;;;;;;5053098;28;20021;-70
2022/01/05 11:56:13;;;;;;;24.50;4.72;;;;;;;;;;5053046;28;20142;-71
2022/01/05 11:58:51;;;;;;;19.13;4.03;;;;;;;;;;5053035;28;20486;-71
2022/01/05 12:01:19;;;;;;;19.13;3.45;;;;;;;;;;5054234;28;20422;-71
2022/01/05 12:03:55;;;;;;;23.60;3.55;;;;;;;;;;5052725;28;20103;-70
2022/01/05 12:06:22;;;;;;;21.88;2.90;;;;;;;;;;5054107;28;20025;-71
2022/01/05 12:08:49;;;;;;;17.27;3.30;;;;;;;;;;5052881;28;20032;-70
2022/01/05 12:11:30;;;;;;;17.92;3.13;;;;;;;;;;5054120;28;20024;-70
2022/01/05 12:13:58;;;;;;;17.35;2.85;;;;;;;;;;5052725;28;20025;-71
2022/01/05 12:16:25;;;;;;;24.20;3.92;;;;;;;;;;5053902;28;20028;-70
2022/01/05 12:19:09;;;;;;;19.23;3.58;;;;;;;;;;5053903;28;20032;-70
2022/01/05 12:21:47;;;;;;;16.08;2.80;;;;;;;;;;5053880;28;20074;-70
2022/01/05 12:24:15;;;;;;;24.08;4.38;;;;;;;;;;5053916;28;20499;-71
2022/01/05 12:26:43;;;;;;;25.58;3.78;;;;;;;;;;5053737;28;20024;-71
2022/01/05 12:29:11;;;;;;;22.23;3.28;;;;;;;;;;5052526;28;20104;-69
2022/01/05 12:31:56;;;;;;;21.75;4.75;;;;;;;;;;5053748;28;20078;-70
2022/01/05 12:34:41;;;;;;;27.48;5.00;;;;;;;;;;5053733;28;20036;-70
2022/01/05 12:37:27;;;;;;;32.45;5.57;;;;;;;;;;5052318;28;20029;-70
2022/01/05 12:39:56;;;;;;;30.10;5.00;;;;;;;;;;5053479;28;20021;-69
2022/01/05 12:42:23;;;;;;;26.02;5.25;;;;;;;;;;5053484;28;20104;-69
2022/01/05 12:44:50;;;;;;;32.80;5.38;;;;;;;;;;5053363;28;20107;-69
2022/01/05 12:47:36;;;;;;;29.27;5.00;;;;;;;;;;5053405;28;20025;-70
2022/01/05 12:50:16;;;;;;;32.45;4.82;;;;;;;;;;5052086;28;20075;-70
2022/01/05 12:52:43;;;;;;;30.90;5.45;;;;;;;;;;5053350;28;20025;-70
2022/01/05 12:55:10;;;;;;;24.58;4.88;;;;;;;;;;5051971;28;20029;-70
2022/01/05 12:57:39;;;;;;;29.23;5.40;;;;;;;;;;5053257;28;20021;-69
2022/01/05 13:00:07;;;;;;;29.92;5.13;;;;;;;;;;5053150;28;20021;-70
2022/01/05 13:02:41;;;;;;;38.92;6.05;;;;;;;;;;5052961;28;20068;-71
2022/01/05 13:05:09;;;;;;;36.50;6.18;;;;;;;;;;5053124;28;20389;-71
2022/01/05 13:07:39;;;;;;;40.05;6.82;;;;;;;;;;5053056;28;20014;-71
2022/01/05 13:10:06;;;;;;;;;;;;;;;;;;5052211;28;20371;-70
2022/01/05 13:12:34;;;;;;;38.80;7.25;;;;;;;;;;5053006;28;20270;-72
2022/01/05 13:15:07;;;;;;;41.10;6.53;;;;;;;;;;5051728;28;20516;-70
2022/01/05 13:17:39;;;;;;;38.25;6.72;;;;;;;;;;5051638;28;20075;-70
2022/01/05 13:20:11;;;;;;;37.30;6.68;;;;;;;;;;5052994;28;20021;-71
2022/01/05 13:22:44;;;;;;;42.10;6.28;;;;;;;;;;5051628;28;20031;-71
2022/01/05 13:25:16;;;;;;;45.17;6.88;;;;;;;;;;5052786;28;20040;-71
2022/01/05 13:27:48;;;;;;;42.45;7.03;;;;;;;;;;5051234;28;20026;-72
2022/01/05 13:30:20;;;;;;;41.00;7.50;;;;;;;;;;5051525;28;20073;-71
2022/01/05 13:32:49;;;;;;;40.75;7.78;;;;;;;;;;5051569;28;20028;-72
2022/01/05 13:35:18;;;;;;;47.03;7.93;;;;;;;;;;5051507;28;20029;-71
2022/01/05 13:37:47;;;;;;;33.17;6.55;;;;;;;;;;5051463;28;20025;-72
2022/01/05 13:40:15;;;;;;;45.17;7.57;;;;;;;;;;5051380;28;20448;-72
2022/01/05 13:42:42;;;;;;;36.63;7.30;;;;;;;;;;5052704;28;20026;-71
2022/01/05 13:45:17;;;;;;;40.30;7.35;;;;;;;;;;5052632;28;20071;-71
2022/01/05 13:47:44;;;;;;;33.83;6.00;;;;;;;;;;5051352;28;20032;-71
2022/01/05 13:50:13;;;;;;;37.05;6.28;;;;;;;;;;5052686;28;20033;-72
2022/01/05 13:52:41;;;;;;;44.53;6.63;;;;;;;;;;5052576;28;20021;-71
2022/01/05 13:55:08;;;;;;;30.70;5.97;;;;;;;;;;5052625;28;20031;-72
2022/01/05 13:57:37;;;;;;;29.00;5.68;;;;;;;;;;5051293;28;20103;-72
2022/01/05 14:00:12;;;;;;;33.20;5.45;;;;;;;;;;5052521;28;20477;-72
2022/01/05 14:02:41;;;;;;;30.13;4.90;;;;;;;;;;5052351;28;20022;-71
2022/01/05 14:05:09;;;;;;;29.48;5.30;;;;;;;;;;5051193;28;20029;-71
2022/01/05 14:07:37;;;;;;;32.40;5.55;;;;;;;;;;5051194;28;20071;-72
2022/01/05 14:10:05;;;;;;;32.35;5.57;;;;;;;;;;5051264;28;20096;-73
2022/01/05 14:12:34;;;;;;;29.63;5.05;;;;;;;;;;5051216;28;20036;-72
2022/01/05 14:15:02;;;;;;;26.00;4.75;;;;;;;;;;5052407;28;20025;-72
2022/01/05 14:17:34;;;;;;;29.23;5.40;;;;;;;;;;5051235;28;20028;-73
2022/01/05 14:20:14;;;;;;;25.17;5.00;;;;;;;;;;5052491;28;20082;-73
2022/01/05 14:22:41;;;;;;;38.38;6.70;;;;;;;;;;5052361;28;20083;-72
2022/01/05 14:25:09;;;;;;;39.15;6.28;;;;;;;;;;5052288;28;20071;-72
2022/01/05 14:27:37;;;;;;;41.10;6.18;;;;;;;;;;5052284;28;20442;-72
2022/01/05 14:30:06;;;;;;;49.30;7.75;;;;;;;;;;5052312;28;20477;-72
2022/01/05 14:32:34;;;;;;;40.53;7.43;;;;;;;;;;5050986;28;20021;-72
2022/01/05 14:35:02;;;;;;;45.28;7.60;;;;;;;;;;5052289;28;20432;-72
2022/01/05 14:37:30;;;;;;;48.08;8.32;;;;;;;;;;5052227;28;20031;-72
2022/01/05 14:39:58;;;;;;;39.53;7.70;;;;;;;;;;5052265;28;20481;-73
2022/01/05 14:42:26;;;;;;;47.22;8.25;;;;;;;;;;5055828;28;20029;-72
2022/01/05 14:44:53;;;;;;;49.30;6.75;;;;;;;;;;5055584;28;20017;-72
2022/01/05 14:47:24;;;;;;;47.05;7.45;;;;;;;;;;5055695;28;20200;-72